Time;durP1;ratioP1;P1;durP2;ratioP2;P2;SDS_P1;SDS_P2;PMS_P1;PMS_P2;Temp;Humidity;BMP_temperature;BMP_pressure;BME280_temperature;BME280_humidity;BME280_pressure;Samples;Min_cycle;Max_cycle;Signal;HPM_P1;HPM_P2
2023/01/21 00:00:18;;;;;;;12.48;4.13;;;;;;;;;;5029571;28;20417;-82
2023/01/21 00:02:43;;;;;;;7.53;3.47;;;;;;;;;;5030927;28;20025;-81
2023/01/21 00:05:09;;;;;;;8.43;3.88;;;;;;;;;;5030801;28;20405;-81
2023/01/21 00:07:34;;;;;;;11.45;3.90;;;;;;;;;;5029288;28;20042;-81
2023/01/21 00:10:00;;;;;;;9.07;4.20;;;;;;;;;;5029450;28;20029;-81
2023/01/21 00:12:25;;;;;;;7.47;3.50;;;;;;;;;;5030974;28;20049;-82
2023/01/21 00:14:51;;;;;;;10.93;4.38;;;;;;;;;;5002411;28;20033;-81
2023/01/21 00:17:16;;;;;;;8.80;3.65;;;;;;;;;;5026512;28;20032;-81
2023/01/21 00:19:42;;;;;;;9.15;3.17;;;;;;;;;;5030480;28;20391;-81
2023/01/21 00:22:07;;;;;;;8.10;3.03;;;;;;;;;;5031290;28;20044;-81
2023/01/21 00:24:33;;;;;;;9.93;3.20;;;;;;;;;;5033499;28;20030;-82
2023/01/21 00:26:58;;;;;;;6.35;3.00;;;;;;;;;;5029340;28;20902;-82
2023/01/21 00:29:25;;;;;;;6.47;2.78;;;;;;;;;;5012556;28;20062;-81
2023/01/21 00:31:50;;;;;;;11.32;3.45;;;;;;;;;;5030374;28;20033;-81
2023/01/21 00:34:16;;;;;;;8.68;3.05;;;;;;;;;;5030564;28;20033;-80
2023/01/21 00:36:41;;;;;;;12.43;3.60;;;;;;;;;;5018956;28;20108;-81
2023/01/21 00:39:32;;;;;;;8.95;3.17;;;;;;;;;;5029647;28;20044;-81
2023/01/21 00:41:57;;;;;;;9.43;3.35;;;;;;;;;;5031224;28;20495;-82
2023/01/21 00:44:23;;;;;;;9.65;3.45;;;;;;;;;;5008658;28;20034;-81
2023/01/21 00:46:48;;;;;;;8.20;3.03;;;;;;;;;;5028138;28;20421;-81
2023/01/21 00:49:14;;;;;;;8.23;3.00;;;;;;;;;;5030806;28;20029;-82
2023/01/21 00:51:39;;;;;;;6.10;2.70;;;;;;;;;;5030852;28;20026;-81
2023/01/21 00:54:04;;;;;;;9.55;3.20;;;;;;;;;;5030520;28;20480;-82
2023/01/21 00:56:30;;;;;;;13.13;3.70;;;;;;;;;;5030567;28;20033;-81
2023/01/21 00:58:55;;;;;;;9.10;2.85;;;;;;;;;;5029638;28;20032;-81
2023/01/21 01:01:21;;;;;;;10.00;2.97;;;;;;;;;;5031057;28;20061;-82
2023/01/21 01:03:47;;;;;;;5.55;2.80;;;;;;;;;;5029419;28;20416;-81
2023/01/21 01:06:16;;;;;;;11.48;2.97;;;;;;;;;;5031113;28;20045;-81
2023/01/21 01:08:42;;;;;;;7.00;2.58;;;;;;;;;;5012166;28;20037;-82
2023/01/21 01:11:07;;;;;;;6.78;3.30;;;;;;;;;;5029319;28;20029;-82
2023/01/21 01:13:33;;;;;;;7.72;2.90;;;;;;;;;;5029051;28;20060;-82
2023/01/21 01:16:02;;;;;;;7.90;3.00;;;;;;;;;;5041269;28;20036;-80
2023/01/21 01:18:28;;;;;;;9.93;2.95;;;;;;;;;;5036270;28;20037;-81
2023/01/21 01:20:53;;;;;;;8.55;2.67;;;;;;;;;;5030685;28;20041;-81
2023/01/21 01:23:18;;;;;;;8.25;2.75;;;;;;;;;;5029460;28;20041;-81
2023/01/21 01:25:52;;;;;;;10.52;2.60;;;;;;;;;;5030535;28;20131;-81
2023/01/21 01:28:18;;;;;;;7.57;2.60;;;;;;;;;;5029599;28;20091;-81
2023/01/21 01:30:43;;;;;;;7.05;2.70;;;;;;;;;;5040753;28;20119;-81
2023/01/21 01:33:09;;;;;;;11.60;3.60;;;;;;;;;;5034998;28;20032;-81
2023/01/21 01:35:34;;;;;;;6.47;2.97;;;;;;;;;;5036368;28;20112;-82
2023/01/21 01:38:06;;;;;;;7.95;2.80;;;;;;;;;;5029871;28;20041;-81
2023/01/21 01:40:32;;;;;;;10.07;2.65;;;;;;;;;;5029812;28;20496;-80
2023/01/21 01:42:57;;;;;;;8.68;2.55;;;;;;;;;;5036833;28;20028;-82
2023/01/21 01:45:23;;;;;;;8.13;2.65;;;;;;;;;;5036633;28;20037;-81
2023/01/21 01:47:57;;;;;;;5.95;3.50;;;;;;;;;;5032378;28;20068;-81
2023/01/21 01:50:22;;;;;;;5.70;2.38;;;;;;;;;;5015733;28;20064;-82
2023/01/21 01:52:48;;;;;;;8.02;2.55;;;;;;;;;;5016348;28;20098;-82
2023/01/21 01:55:14;;;;;;;5.95;2.95;;;;;;;;;;5032775;28;20044;-82
2023/01/21 01:57:41;;;;;;;11.90;2.55;;;;;;;;;;5021699;28;20025;-82
2023/01/21 02:00:07;;;;;;;9.60;2.90;;;;;;;;;;5032244;28;20049;-81
2023/01/21 02:02:36;;;;;;;10.43;2.90;;;;;;;;;;5032956;28;20017;-81
2023/01/21 02:05:01;;;;;;;;;;;;;;;;;;5017338;28;20033;-81
2023/01/21 02:07:28;;;;;;;9.40;3.00;;;;;;;;;;5040613;28;19913;-82
2023/01/21 02:09:53;;;;;;;7.60;2.40;;;;;;;;;;5033837;28;20029;-83
2023/01/21 02:12:18;;;;;;;13.02;2.70;;;;;;;;;;5034134;28;20033;-83
2023/01/21 02:14:44;;;;;;;8.88;3.05;;;;;;;;;;5033543;28;20124;-82
2023/01/21 02:17:28;;;;;;;7.55;2.80;;;;;;;;;;5039004;28;20108;-82
2023/01/21 02:19:57;;;;;;;10.07;2.80;;;;;;;;;;5031314;28;20408;-82
2023/01/21 02:22:41;;;;;;;5.20;2.45;;;;;;;;;;5032780;28;20032;-82
2023/01/21 02:25:33;;;;;;;7.82;2.30;;;;;;;;;;5025851;28;20033;-82
2023/01/21 02:28:02;;;;;;;13.60;2.55;;;;;;;;;;5022566;28;20044;-82
2023/01/21 02:30:28;;;;;;;6.95;2.80;;;;;;;;;;5031349;28;20052;-82
2023/01/21 02:32:53;;;;;;;6.57;2.42;;;;;;;;;;5032410;28;20037;-82
2023/01/21 02:35:26;;;;;;;7.65;2.30;;;;;;;;;;5035467;28;20060;-82
2023/01/21 02:37:51;;;;;;;10.35;2.67;;;;;;;;;;5022274;28;20557;-82
2023/01/21 02:40:19;;;;;;;7.45;2.47;;;;;;;;;;5035262;28;20029;-82
2023/01/21 02:43:04;;;;;;;6.60;2.60;;;;;;;;;;5031376;28;20030;-82
2023/01/21 02:45:34;;;;;;;7.78;2.65;;;;;;;;;;5042023;28;20042;-82
2023/01/21 02:48:04;;;;;;;6.72;2.30;;;;;;;;;;5031334;28;20516;-82
2023/01/21 02:50:47;;;;;;;7.22;2.50;;;;;;;;;;5015023;28;20031;-82
2023/01/21 02:53:18;;;;;;;8.90;2.60;;;;;;;;;;5031117;28;20097;-82
2023/01/21 02:55:43;;;;;;;12.07;2.78;;;;;;;;;;5030081;28;20033;-82
2023/01/21 02:58:09;;;;;;;7.60;2.25;;;;;;;;;;5031493;28;20424;-82
2023/01/21 03:00:35;;;;;;;;;;;;;;;;;;5031301;28;20386;-81
2023/01/21 03:03:14;;;;;;;9.93;2.63;;;;;;;;;;5043788;28;19916;-82
2023/01/21 03:05:43;;;;;;;4.93;2.30;;;;;;;;;;5042989;28;20107;-82
2023/01/21 03:08:14;;;;;;;7.10;2.30;;;;;;;;;;5031978;28;20031;-82
2023/01/21 03:10:54;;;;;;;10.13;2.33;;;;;;;;;;5021424;28;20042;-82
2023/01/21 03:16:55;;;;;;;10.10;3.63;;;;;;;;;;5031658;28;20101;-83
2023/01/21 03:18:51;;;;;;;10.07;2.72;;;;;;;;;;5016392;28;20029;-81
2023/01/21 03:21:17;;;;;;;7.70;2.60;;;;;;;;;;5031574;28;20025;-81
2023/01/21 03:23:43;;;;;;;5.78;2.20;;;;;;;;;;5030549;28;20448;-81
2023/01/21 03:26:09;;;;;;;9.75;2.55;;;;;;;;;;5031623;28;20431;-82
2023/01/21 03:28:35;;;;;;;;;;;;;;;;;;5030314;28;20608;-81
2023/01/21 03:31:11;;;;;;;9.00;2.80;;;;;;;;;;5030366;28;19913;-82
2023/01/21 03:33:37;;;;;;;9.85;2.80;;;;;;;;;;5037909;28;20171;-82
2023/01/21 03:36:05;;;;;;;5.15;2.22;;;;;;;;;;5010557;28;20030;-81
2023/01/21 03:38:33;;;;;;;6.53;1.95;;;;;;;;;;5037875;28;20032;-82
2023/01/21 03:41:02;;;;;;;4.95;2.17;;;;;;;;;;5030807;28;20507;-82
2023/01/21 03:43:27;;;;;;;8.57;2.42;;;;;;;;;;5031623;28;20044;-81
2023/01/21 03:46:03;;;;;;;6.22;2.00;;;;;;;;;;5030530;28;20033;-83
2023/01/21 03:48:31;;;;;;;5.87;2.20;;;;;;;;;;5029716;28;20037;-82
2023/01/21 03:51:01;;;;;;;6.47;2.58;;;;;;;;;;5029515;28;20029;-82
2023/01/21 03:53:27;;;;;;;5.68;2.33;;;;;;;;;;5029821;28;20033;-82
2023/01/21 03:55:52;;;;;;;6.38;2.00;;;;;;;;;;5012774;28;20032;-82
2023/01/21 03:58:18;;;;;;;5.25;2.03;;;;;;;;;;5031355;28;20034;-83
2023/01/21 04:00:45;;;;;;;6.18;2.08;;;;;;;;;;5029944;28;20112;-83
2023/01/21 04:03:11;;;;;;;7.65;2.67;;;;;;;;;;5031290;28;20128;-83
2023/01/21 04:05:36;;;;;;;10.27;2.75;;;;;;;;;;5041126;28;20523;-78
2023/01/21 04:08:02;;;;;;;6.03;2.83;;;;;;;;;;5030067;28;20033;-83
2023/01/21 04:10:27;;;;;;;9.73;3.17;;;;;;;;;;5051874;28;20029;-82
2023/01/21 04:12:53;;;;;;;6.55;2.63;;;;;;;;;;5035042;28;20077;-83
2023/01/21 04:15:18;;;;;;;4.88;2.05;;;;;;;;;;5030994;28;20045;-81
2023/01/21 04:17:43;;;;;;;6.72;2.40;;;;;;;;;;5029116;28;20108;-82
2023/01/21 04:20:09;;;;;;;5.50;1.90;;;;;;;;;;5029821;28;20068;-82
2023/01/21 04:22:35;;;;;;;5.25;1.92;;;;;;;;;;5030820;28;20044;-82
2023/01/21 04:25:00;;;;;;;7.40;2.15;;;;;;;;;;5034218;28;20025;-82
2023/01/21 04:27:26;;;;;;;8.98;2.20;;;;;;;;;;5033753;28;20029;-83
2023/01/21 04:29:51;;;;;;;5.50;1.83;;;;;;;;;;5030523;28;20030;-83
2023/01/21 04:32:16;;;;;;;7.78;2.03;;;;;;;;;;5030357;28;20034;-83
2023/01/21 04:34:42;;;;;;;7.25;2.22;;;;;;;;;;5030178;28;20029;-82
2023/01/21 04:37:07;;;;;;;7.30;2.55;;;;;;;;;;5029110;28;20384;-82
2023/01/21 04:39:33;;;;;;;7.03;2.20;;;;;;;;;;5030749;28;20029;-82
2023/01/21 04:41:58;;;;;;;5.50;1.90;;;;;;;;;;5030675;28;20044;-82
2023/01/21 04:44:24;;;;;;;6.60;2.25;;;;;;;;;;5029830;28;20030;-82
2023/01/21 04:46:49;;;;;;;10.02;2.10;;;;;;;;;;5030218;28;20168;-83
2023/01/21 04:49:14;;;;;;;7.20;2.35;;;;;;;;;;5028991;28;20116;-82
2023/01/21 04:51:40;;;;;;;6.45;2.17;;;;;;;;;;5031055;28;20116;-82
2023/01/21 04:54:05;;;;;;;5.45;2.15;;;;;;;;;;5030298;28;20503;-82
2023/01/21 04:56:31;;;;;;;6.97;2.22;;;;;;;;;;5030888;28;20121;-82
2023/01/21 04:58:56;;;;;;;8.02;3.22;;;;;;;;;;5030358;28;20029;-82
2023/01/21 05:01:22;;;;;;;4.53;2.03;;;;;;;;;;5030741;28;20092;-82
2023/01/21 05:03:47;;;;;;;6.85;2.00;;;;;;;;;;5030670;28;20029;-83
2023/01/21 05:06:13;;;;;;;7.32;2.45;;;;;;;;;;5031348;28;20040;-82
2023/01/21 05:08:38;;;;;;;6.13;1.90;;;;;;;;;;5030108;28;20038;-84
2023/01/21 05:11:06;;;;;;;9.95;2.08;;;;;;;;;;5031112;28;20037;-82
2023/01/21 05:13:31;;;;;;;6.97;1.90;;;;;;;;;;5038259;28;20107;-82
2023/01/21 05:16:01;;;;;;;5.05;1.92;;;;;;;;;;5037748;28;20596;-82
2023/01/21 05:18:26;;;;;;;14.88;2.25;;;;;;;;;;5031650;28;20121;-82
2023/01/21 05:20:52;;;;;;;5.75;2.47;;;;;;;;;;5032765;28;20124;-82
2023/01/21 05:23:17;;;;;;;4.25;1.73;;;;;;;;;;5028225;28;20071;-82
2023/01/21 05:25:43;;;;;;;6.30;1.83;;;;;;;;;;5034085;28;20476;-82
2023/01/21 05:28:08;;;;;;;4.10;1.95;;;;;;;;;;5033061;28;20108;-83
2023/01/21 05:30:33;;;;;;;6.03;1.95;;;;;;;;;;5038364;28;20451;-82
2023/01/21 05:32:59;;;;;;;3.20;1.70;;;;;;;;;;5032649;28;20018;-82
2023/01/21 05:35:24;;;;;;;4.22;1.88;;;;;;;;;;5009955;28;20560;-82
2023/01/21 05:37:50;;;;;;;5.43;2.05;;;;;;;;;;5038709;28;20032;-83
2023/01/21 05:40:41;;;;;;;2.70;1.45;;;;;;;;;;5029347;28;20045;-82
2023/01/21 05:43:06;;;;;;;6.03;2.80;;;;;;;;;;5034692;28;20396;-83
2023/01/21 05:45:32;;;;;;;6.32;2.05;;;;;;;;;;5032146;28;20025;-83
2023/01/21 05:47:57;;;;;;;3.80;1.80;;;;;;;;;;5031718;28;20095;-83
2023/01/21 05:50:23;;;;;;;3.92;1.73;;;;;;;;;;5033907;28;20040;-82
2023/01/21 05:52:48;;;;;;;6.60;1.85;;;;;;;;;;5034637;28;20514;-82
2023/01/21 05:55:14;;;;;;;6.43;1.98;;;;;;;;;;5028873;28;20082;-83
2023/01/21 05:57:39;;;;;;;4.18;2.22;;;;;;;;;;5041864;28;20553;-82
2023/01/21 06:00:05;;;;;;;3.72;1.90;;;;;;;;;;5016124;28;20538;-83
2023/01/21 06:02:31;;;;;;;4.65;2.28;;;;;;;;;;5034734;28;20025;-85
2023/01/21 06:04:56;;;;;;;9.10;2.70;;;;;;;;;;5034057;28;20507;-83
2023/01/21 06:07:22;;;;;;;5.75;1.85;;;;;;;;;;5032519;28;20041;-84
2023/01/21 06:09:47;;;;;;;8.80;1.98;;;;;;;;;;5033899;28;20480;-84
2023/01/21 06:12:13;;;;;;;4.68;2.13;;;;;;;;;;5026998;28;20036;-85
2023/01/21 06:14:38;;;;;;;3.65;1.60;;;;;;;;;;5032530;28;20069;-84
2023/01/21 06:17:03;;;;;;;8.73;2.13;;;;;;;;;;5031253;28;20053;-85
2023/01/21 06:19:29;;;;;;;4.78;2.53;;;;;;;;;;5040581;28;20082;-84
2023/01/21 06:21:54;;;;;;;5.97;1.80;;;;;;;;;;5032995;28;20545;-85
2023/01/21 06:24:20;;;;;;;9.63;1.80;;;;;;;;;;5033756;28;20116;-84
2023/01/21 06:26:45;;;;;;;5.97;2.05;;;;;;;;;;5033045;28;20476;-83
2023/01/21 06:29:11;;;;;;;5.65;2.28;;;;;;;;;;5033988;28;20113;-84
2023/01/21 06:31:36;;;;;;;6.43;2.03;;;;;;;;;;5032822;28;20057;-84
2023/01/21 06:34:02;;;;;;;7.10;2.00;;;;;;;;;;5032475;28;20030;-83
2023/01/21 06:36:27;;;;;;;9.98;2.35;;;;;;;;;;5012484;28;20030;-84
2023/01/21 06:38:52;;;;;;;6.07;3.03;;;;;;;;;;5040783;28;20036;-84
2023/01/21 06:41:18;;;;;;;5.75;2.70;;;;;;;;;;5031253;28;20079;-83
2023/01/21 06:43:43;;;;;;;7.78;2.40;;;;;;;;;;5031560;28;20088;-85
2023/01/21 06:46:10;;;;;;;6.50;2.40;;;;;;;;;;5032090;28;20069;-83
2023/01/21 06:48:35;;;;;;;7.28;3.25;;;;;;;;;;5025397;28;20038;-83
2023/01/21 06:51:01;;;;;;;5.70;3.30;;;;;;;;;;5033405;28;20380;-84
2023/01/21 06:53:26;;;;;;;5.10;2.25;;;;;;;;;;5033431;28;20499;-84
2023/01/21 06:55:52;;;;;;;5.30;2.55;;;;;;;;;;5033097;28;20029;-84
2023/01/21 06:58:17;;;;;;;6.10;2.45;;;;;;;;;;5033724;28;20030;-84
2023/01/21 07:00:43;;;;;;;6.63;2.70;;;;;;;;;;5031294;28;20052;-84
2023/01/21 07:03:08;;;;;;;4.70;2.72;;;;;;;;;;5012195;28;20404;-83
2023/01/21 07:05:34;;;;;;;13.02;4.50;;;;;;;;;;5030506;28;20029;-85
2023/01/21 07:07:59;;;;;;;6.63;2.88;;;;;;;;;;5031151;28;20032;-83
2023/01/21 07:10:25;;;;;;;6.72;3.22;;;;;;;;;;5031036;28;20128;-84
2023/01/21 07:12:50;;;;;;;11.18;2.97;;;;;;;;;;5030111;28;20053;-84
2023/01/21 07:15:16;;;;;;;6.93;2.30;;;;;;;;;;4998371;28;20033;-85
2023/01/21 07:17:41;;;;;;;7.47;2.40;;;;;;;;;;5030135;28;20033;-85
2023/01/21 07:20:07;;;;;;;6.28;2.63;;;;;;;;;;5029398;28;20056;-83
2023/01/21 07:22:33;;;;;;;9.48;3.58;;;;;;;;;;5032137;28;20080;-84
2023/01/21 07:24:59;;;;;;;5.63;2.70;;;;;;;;;;5033158;28;20029;-84
2023/01/21 07:27:24;;;;;;;10.68;2.50;;;;;;;;;;5032538;28;20124;-83
2023/01/21 07:29:50;;;;;;;8.23;2.45;;;;;;;;;;5029299;28;20029;-84
2023/01/21 07:32:15;;;;;;;8.38;2.60;;;;;;;;;;5032187;28;20079;-84
2023/01/21 07:34:41;;;;;;;5.43;2.45;;;;;;;;;;5033153;28;20061;-81
2023/01/21 07:37:06;;;;;;;7.70;2.58;;;;;;;;;;5013880;28;20098;-80
2023/01/21 07:39:32;;;;;;;8.15;3.03;;;;;;;;;;5024102;28;20038;-83
2023/01/21 07:41:57;;;;;;;4.45;2.30;;;;;;;;;;5031071;28;20083;-83
2023/01/21 07:44:25;;;;;;;7.97;2.70;;;;;;;;;;5026250;28;20404;-79
2023/01/21 07:46:50;;;;;;;10.77;2.50;;;;;;;;;;5012859;28;20032;-79
2023/01/21 07:49:17;;;;;;;9.60;2.65;;;;;;;;;;5012939;28;20075;-79
2023/01/21 07:51:43;;;;;;;5.82;2.83;;;;;;;;;;5031477;28;20025;-79
2023/01/21 07:54:09;;;;;;;13.10;3.10;;;;;;;;;;5014900;28;20034;-79
2023/01/21 07:56:34;;;;;;;10.68;2.83;;;;;;;;;;5032173;28;20031;-80
2023/01/21 07:59:00;;;;;;;9.95;3.22;;;;;;;;;;5031814;28;20038;-79
2023/01/21 08:01:29;;;;;;;9.40;3.72;;;;;;;;;;5031012;28;20036;-78
2023/01/21 08:03:55;;;;;;;8.52;3.92;;;;;;;;;;5022814;28;20041;-79
2023/01/21 08:06:20;;;;;;;8.85;2.65;;;;;;;;;;5027796;28;20112;-79
2023/01/21 08:08:46;;;;;;;6.03;2.65;;;;;;;;;;5030579;28;20064;-78
2023/01/21 08:11:11;;;;;;;5.72;2.78;;;;;;;;;;5031057;28;20455;-79
2023/01/21 08:13:37;;;;;;;8.23;2.50;;;;;;;;;;5031673;28;20185;-79
2023/01/21 08:16:04;;;;;;;6.60;2.28;;;;;;;;;;5029264;28;20098;-78
2023/01/21 08:18:30;;;;;;;5.95;2.88;;;;;;;;;;5031777;28;20038;-80
2023/01/21 08:20:56;;;;;;;13.38;2.88;;;;;;;;;;5028028;28;20032;-78
2023/01/21 08:23:21;;;;;;;12.75;2.60;;;;;;;;;;5030197;28;20076;-78
2023/01/21 08:25:47;;;;;;;11.30;2.97;;;;;;;;;;5014130;28;20014;-78
2023/01/21 08:28:13;;;;;;;9.23;2.50;;;;;;;;;;5012618;28;20037;-80
2023/01/21 08:30:38;;;;;;;13.23;3.20;;;;;;;;;;5029320;28;20040;-78
2023/01/21 08:33:04;;;;;;;3.47;2.38;;;;;;;;;;5015557;28;20063;-78
2023/01/21 08:35:29;;;;;;;8.40;2.33;;;;;;;;;;5032789;28;20021;-79
2023/01/21 08:37:57;;;;;;;6.47;2.38;;;;;;;;;;5031044;28;20029;-78
2023/01/21 08:40:25;;;;;;;8.15;2.95;;;;;;;;;;5028924;28;20168;-78
2023/01/21 08:42:51;;;;;;;8.88;3.15;;;;;;;;;;5031670;28;20064;-76
2023/01/21 08:45:16;;;;;;;23.60;4.43;;;;;;;;;;5031137;28;20515;-79
2023/01/21 08:47:41;;;;;;;4.68;2.47;;;;;;;;;;5034301;28;20465;-79
2023/01/21 08:50:08;;;;;;;13.25;2.30;;;;;;;;;;5032736;28;20046;-78
2023/01/21 08:52:33;;;;;;;9.20;2.45;;;;;;;;;;5015952;28;20529;-79
2023/01/21 08:54:59;;;;;;;4.78;2.30;;;;;;;;;;5030795;28;20116;-79
2023/01/21 08:57:25;;;;;;;9.68;2.45;;;;;;;;;;5035447;28;20064;-79
2023/01/21 08:59:51;;;;;;;6.28;2.53;;;;;;;;;;5035365;28;20037;-78
2023/01/21 09:02:17;;;;;;;9.32;2.63;;;;;;;;;;5036518;28;20083;-78
2023/01/21 09:04:43;;;;;;;5.32;2.38;;;;;;;;;;5033779;28;20035;-77
2023/01/21 09:07:08;;;;;;;4.05;2.53;;;;;;;;;;5035110;28;20475;-78
2023/01/21 09:09:34;;;;;;;10.40;2.60;;;;;;;;;;5037228;28;20033;-77
2023/01/21 09:11:59;;;;;;;11.68;2.35;;;;;;;;;;5034852;28;20392;-79
2023/01/21 09:14:25;;;;;;;21.45;2.90;;;;;;;;;;5035588;28;20071;-79
2023/01/21 09:16:51;;;;;;;16.05;2.65;;;;;;;;;;5036647;28;20045;-79
2023/01/21 09:19:16;;;;;;;13.05;3.03;;;;;;;;;;5032782;28;20405;-79
2023/01/21 09:21:41;;;;;;;14.40;3.03;;;;;;;;;;5034941;28;20037;-79
2023/01/21 09:24:07;;;;;;;9.48;2.40;;;;;;;;;;5034633;28;20040;-78
2023/01/21 09:26:33;;;;;;;7.45;2.45;;;;;;;;;;5029144;28;20453;-77
2023/01/21 09:28:59;;;;;;;8.05;3.10;;;;;;;;;;5033147;28;20056;-78
2023/01/21 09:31:24;;;;;;;9.90;2.97;;;;;;;;;;5034762;28;20033;-78
2023/01/21 09:33:54;;;;;;;7.32;2.60;;;;;;;;;;5034412;28;20033;-78
2023/01/21 09:36:20;;;;;;;6.05;2.00;;;;;;;;;;5025677;28;20510;-79
2023/01/21 09:38:46;;;;;;;;;;;;;;;;;;5015888;28;20030;-78
2023/01/21 09:41:12;;;;;;;6.95;2.45;;;;;;;;;;5033438;28;20314;-77
2023/01/21 09:43:37;;;;;;;;;;;;;;;;;;5035590;28;20596;-77
2023/01/21 09:46:03;;;;;;;8.25;2.05;;;;;;;;;;5032514;28;19962;-77
2023/01/21 09:48:32;;;;;;;8.38;2.20;;;;;;;;;;5034685;28;20087;-77
2023/01/21 09:50:59;;;;;;;15.05;2.45;;;;;;;;;;5032462;28;20507;-77
2023/01/21 09:53:25;;;;;;;12.80;2.38;;;;;;;;;;5016536;28;20013;-77
2023/01/21 09:55:51;;;;;;;15.50;2.63;;;;;;;;;;5032852;28;20049;-78
2023/01/21 09:58:34;;;;;;;13.40;3.65;;;;;;;;;;5032833;28;20499;-78
2023/01/21 10:01:18;;;;;;;15.00;2.60;;;;;;;;;;5029218;28;20040;-76
2023/01/21 10:03:53;;;;;;;12.10;2.40;;;;;;;;;;5032135;28;20124;-78
2023/01/21 10:06:21;;;;;;;8.88;2.70;;;;;;;;;;5029459;28;20075;-77
2023/01/21 10:08:50;;;;;;;19.95;2.80;;;;;;;;;;5032612;28;20017;-79
2023/01/21 10:11:34;;;;;;;11.45;2.63;;;;;;;;;;5035557;28;20476;-76
2023/01/21 10:14:00;;;;;;;8.45;2.33;;;;;;;;;;5034440;28;20045;-78
2023/01/21 10:16:44;;;;;;;8.77;2.28;;;;;;;;;;5034321;28;20044;-76
2023/01/21 10:19:14;;;;;;;12.82;2.95;;;;;;;;;;5033255;28;20029;-79
2023/01/21 10:21:48;;;;;;;12.63;2.40;;;;;;;;;;5016860;28;20132;-79
2023/01/21 10:24:45;;;;;;;20.45;3.00;;;;;;;;;;5032187;28;20083;-80
2023/01/21 10:27:14;;;;;;;7.88;2.63;;;;;;;;;;5016465;28;20086;-77
2023/01/21 10:29:40;;;;;;;7.07;2.53;;;;;;;;;;5033339;28;20025;-78
2023/01/21 10:32:07;;;;;;;7.65;2.42;;;;;;;;;;5033325;28;20523;-79
2023/01/21 10:34:34;;;;;;;10.50;2.80;;;;;;;;;;5032284;28;20025;-78
2023/01/21 10:37:10;;;;;;;11.68;2.40;;;;;;;;;;5036953;28;20059;-78
2023/01/21 10:39:51;;;;;;;10.20;2.90;;;;;;;;;;5038735;28;20044;-78
2023/01/21 10:42:29;;;;;;;12.38;3.47;;;;;;;;;;5025805;28;20085;-79
2023/01/21 10:45:13;;;;;;;18.95;5.30;;;;;;;;;;5028709;28;20041;-79
2023/01/21 10:47:41;;;;;;;13.40;6.72;;;;;;;;;;5020796;28;20025;-78
2023/01/21 10:50:22;;;;;;;14.75;3.75;;;;;;;;;;5033295;28;20029;-80
2023/01/21 10:52:55;;;;;;;10.63;3.17;;;;;;;;;;5033656;28;20069;-78
2023/01/21 10:55:33;;;;;;;22.88;4.20;;;;;;;;;;5015725;28;20052;-80
2023/01/21 10:58:00;;;;;;;11.63;2.80;;;;;;;;;;5032875;28;20112;-79
2023/01/21 11:00:26;;;;;;;10.18;2.65;;;;;;;;;;5016411;28;20029;-79
2023/01/21 11:02:53;;;;;;;16.70;2.80;;;;;;;;;;5015765;28;20037;-78
2023/01/21 11:05:18;;;;;;;8.75;2.33;;;;;;;;;;5033385;28;20036;-77
2023/01/21 11:07:44;;;;;;;7.55;2.15;;;;;;;;;;5028947;28;20041;-80
2023/01/21 11:10:13;;;;;;;6.00;2.10;;;;;;;;;;5033072;28;20065;-79
2023/01/21 11:12:39;;;;;;;10.77;2.40;;;;;;;;;;5013228;28;20053;-78
2023/01/21 11:15:10;;;;;;;18.85;2.63;;;;;;;;;;5028834;28;20034;-79
2023/01/21 11:17:37;;;;;;;9.15;2.25;;;;;;;;;;5032970;28;20033;-79
2023/01/21 11:20:05;;;;;;;11.23;2.28;;;;;;;;;;5031580;28;20033;-79
2023/01/21 11:22:31;;;;;;;11.15;2.67;;;;;;;;;;5032247;28;20040;-79
2023/01/21 11:24:58;;;;;;;9.02;2.85;;;;;;;;;;5032039;28;20135;-80
2023/01/21 11:27:27;;;;;;;11.48;2.83;;;;;;;;;;4999375;28;20037;-78
2023/01/21 11:29:52;;;;;;;5.93;2.45;;;;;;;;;;5032798;28;20047;-78
2023/01/21 11:32:19;;;;;;;9.32;3.05;;;;;;;;;;5014588;28;20029;-78
2023/01/21 11:34:44;;;;;;;;;;;;;;;;;;5032715;28;20060;-77
2023/01/21 11:37:10;;;;;;;8.15;2.30;;;;;;;;;;5032034;28;19971;-79
2023/01/21 11:39:36;;;;;;;7.32;2.30;;;;;;;;;;5031336;28;20083;-78
2023/01/21 11:42:04;;;;;;;8.52;2.30;;;;;;;;;;5015045;28;20457;-79
2023/01/21 11:44:29;;;;;;;9.90;2.58;;;;;;;;;;5010214;28;20032;-79
2023/01/21 11:46:55;;;;;;;12.30;2.30;;;;;;;;;;5032582;28;20037;-79
2023/01/21 11:49:22;;;;;;;11.23;2.70;;;;;;;;;;5037944;28;20067;-79
2023/01/21 11:51:47;;;;;;;7.95;2.65;;;;;;;;;;5039890;28;20159;-76
2023/01/21 11:54:19;;;;;;;7.85;2.30;;;;;;;;;;5054405;28;20526;-78
2023/01/21 11:56:54;;;;;;;13.25;2.33;;;;;;;;;;5026496;28;20058;-78
2023/01/21 11:59:40;;;;;;;13.32;2.45;;;;;;;;;;5028650;28;20124;-76
2023/01/21 12:02:11;;;;;;;14.63;3.00;;;;;;;;;;5032240;28;20029;-77
2023/01/21 12:04:41;;;;;;;19.90;3.75;;;;;;;;;;5025147;28;20033;-76
2023/01/21 12:07:06;;;;;;;12.15;3.10;;;;;;;;;;5020477;28;20044;-79
2023/01/21 12:09:32;;;;;;;12.27;3.38;;;;;;;;;;5032424;28;20045;-79
2023/01/21 12:12:09;;;;;;;13.05;3.17;;;;;;;;;;5015659;28;20102;-79
2023/01/21 12:14:47;;;;;;;11.63;2.38;;;;;;;;;;5031259;28;20076;-80
2023/01/21 12:17:16;;;;;;;11.55;2.88;;;;;;;;;;5032201;28;20079;-78
2023/01/21 12:19:41;;;;;;;11.82;2.70;;;;;;;;;;5031136;28;20099;-79
2023/01/21 12:22:25;;;;;;;13.40;3.00;;;;;;;;;;5032338;28;20030;-79
2023/01/21 12:24:51;;;;;;;14.05;3.85;;;;;;;;;;5016274;28;20465;-76
2023/01/21 12:27:23;;;;;;;15.27;3.95;;;;;;;;;;5031114;28;20044;-78
2023/01/21 12:30:18;;;;;;;12.60;2.78;;;;;;;;;;5031877;28;20151;-78
2023/01/21 12:32:58;;;;;;;16.95;2.65;;;;;;;;;;5025740;28;20033;-78
2023/01/21 12:35:24;;;;;;;14.73;3.10;;;;;;;;;;5034254;28;20034;-78
2023/01/21 12:37:50;;;;;;;6.78;2.67;;;;;;;;;;5030866;28;20104;-80
2023/01/21 12:40:17;;;;;;;6.90;2.10;;;;;;;;;;5032488;28;20087;-78
2023/01/21 12:42:44;;;;;;;5.43;2.65;;;;;;;;;;5013107;28;20039;-78
2023/01/21 12:45:13;;;;;;;9.88;2.40;;;;;;;;;;5030904;28;20049;-78
2023/01/21 12:47:44;;;;;;;16.52;3.95;;;;;;;;;;5018883;28;20063;-78
2023/01/21 12:50:21;;;;;;;8.80;2.70;;;;;;;;;;5037098;28;20072;-77
2023/01/21 12:52:49;;;;;;;7.57;2.60;;;;;;;;;;5010027;28;20033;-78
2023/01/21 12:55:19;;;;;;;15.05;2.55;;;;;;;;;;5027053;28;20029;-80
2023/01/21 12:57:50;;;;;;;8.77;2.50;;;;;;;;;;5030508;28;20034;-79
2023/01/21 13:00:16;;;;;;;6.63;2.10;;;;;;;;;;5029247;28;20045;-78
2023/01/21 13:02:42;;;;;;;;;;;;;;;;;;5031507;28;20041;-78
2023/01/21 13:05:12;;;;;;;15.88;2.72;;;;;;;;;;5029205;28;19924;-80
2023/01/21 13:07:52;;;;;;;9.50;2.83;;;;;;;;;;5031069;28;20033;-78
2023/01/21 13:10:19;;;;;;;6.75;2.97;;;;;;;;;;5029735;28;20049;-78
2023/01/21 13:13:04;;;;;;;8.45;2.80;;;;;;;;;;5021074;28;20060;-78
2023/01/21 13:15:31;;;;;;;24.05;2.65;;;;;;;;;;5033820;28;20527;-77
2023/01/21 13:17:56;;;;;;;;;;;;;;;;;;5031010;28;20029;-78
2023/01/21 13:20:22;;;;;;;9.65;2.90;;;;;;;;;;5030473;28;19939;-79
2023/01/21 13:22:56;;;;;;;17.73;3.72;;;;;;;;;;5018335;28;20106;-78
2023/01/21 13:25:25;;;;;;;11.98;2.53;;;;;;;;;;5029443;28;20045;-77
2023/01/21 13:27:53;;;;;;;15.50;2.70;;;;;;;;;;5030241;28;20531;-79
2023/01/21 13:30:19;;;;;;;10.18;2.38;;;;;;;;;;5031821;28;20091;-78
2023/01/21 13:32:56;;;;;;;15.32;4.20;;;;;;;;;;5031271;28;20419;-77
2023/01/21 13:35:31;;;;;;;14.88;3.35;;;;;;;;;;5031412;28;20034;-78
2023/01/21 13:38:00;;;;;;;8.00;3.20;;;;;;;;;;5031288;28;20038;-78
2023/01/21 13:40:26;;;;;;;6.40;2.75;;;;;;;;;;5034173;28;20025;-78
2023/01/21 13:43:01;;;;;;;13.18;2.95;;;;;;;;;;5035299;28;20479;-78
2023/01/21 13:45:35;;;;;;;8.23;2.50;;;;;;;;;;5033666;28;20041;-77
2023/01/21 13:48:05;;;;;;;9.93;2.63;;;;;;;;;;5035309;28;20040;-77
2023/01/21 13:50:43;;;;;;;6.72;2.30;;;;;;;;;;5016940;28;20035;-79
2023/01/21 13:53:27;;;;;;;8.65;2.22;;;;;;;;;;5044776;28;20052;-78
2023/01/21 13:56:05;;;;;;;7.93;2.63;;;;;;;;;;5033739;28;20492;-78
2023/01/21 13:58:34;;;;;;;10.23;3.05;;;;;;;;;;5033568;28;20029;-77
2023/01/21 14:01:23;;;;;;;11.70;2.53;;;;;;;;;;5035265;28;20484;-77
2023/01/21 14:03:50;;;;;;;12.40;2.75;;;;;;;;;;5030619;28;20408;-77
2023/01/21 14:06:23;;;;;;;9.52;2.83;;;;;;;;;;5030550;28;20025;-78
2023/01/21 14:08:59;;;;;;;8.63;2.88;;;;;;;;;;5033244;28;20408;-78
2023/01/21 14:11:35;;;;;;;10.23;3.03;;;;;;;;;;5016333;28;20037;-77
2023/01/21 14:14:04;;;;;;;12.00;3.20;;;;;;;;;;5013369;28;20516;-77
2023/01/21 14:16:35;;;;;;;16.38;2.70;;;;;;;;;;5046673;28;20036;-78
2023/01/21 14:19:13;;;;;;;13.52;4.22;;;;;;;;;;5034664;28;20033;-77
2023/01/21 14:21:42;;;;;;;12.38;3.72;;;;;;;;;;5029407;28;20038;-78
2023/01/21 14:24:14;;;;;;;12.95;3.47;;;;;;;;;;5000771;28;20091;-78
2023/01/21 14:26:45;;;;;;;10.20;3.00;;;;;;;;;;5043869;28;20135;-77
2023/01/21 14:29:11;;;;;;;15.27;4.50;;;;;;;;;;5033718;28;20037;-78
2023/01/21 14:31:46;;;;;;;12.13;3.60;;;;;;;;;;5035261;28;20043;-79
2023/01/21 14:34:14;;;;;;;9.90;3.42;;;;;;;;;;5034687;28;20119;-78
2023/01/21 14:36:42;;;;;;;10.38;3.13;;;;;;;;;;5035052;28;20113;-78
2023/01/21 14:39:26;;;;;;;6.03;2.83;;;;;;;;;;5033607;28;20046;-78
2023/01/21 14:42:12;;;;;;;13.32;3.20;;;;;;;;;;5031498;28;20033;-77
2023/01/21 14:44:37;;;;;;;9.68;3.10;;;;;;;;;;5031733;28;20040;-78
2023/01/21 14:47:18;;;;;;;10.60;3.10;;;;;;;;;;5028534;28;20476;-78
2023/01/21 14:49:47;;;;;;;6.38;3.10;;;;;;;;;;5031006;28;20029;-78